createdAt,value
2019-04-14T00:01:04.309Z,97580.19
2019-04-14T00:03:45.335Z,97576.94
2019-04-14T00:06:15.899Z,97577.42
2019-04-14T00:08:46.284Z,97575.02
2019-04-14T00:11:16.822Z,97575.17
2019-04-14T00:13:46.299Z,97573.75
2019-04-14T00:16:16.358Z,97567.82
2019-04-14T00:18:46.993Z,97567.30
2019-04-14T00:21:17.262Z,97562.11
2019-04-14T00:23:47.942Z,97561.28
2019-04-14T00:26:33.498Z,97555.80
2019-04-14T00:29:04.611Z,97552.41
2019-04-14T00:31:34.912Z,97552.58
2019-04-14T00:34:09.687Z,97554.47
2019-04-14T00:36:52.859Z,97553.60
2019-04-14T00:39:29.827Z,97542.84
2019-04-14T00:42:10.212Z,97550.05
2019-04-14T00:44:41.213Z,97546.07
2019-04-14T00:47:15.747Z,97542.06
2019-04-14T00:49:46.256Z,97539.55
2019-04-14T00:52:16.834Z,97537.94
2019-04-14T00:54:47.851Z,97531.62
2019-04-14T00:57:18.113Z,97527.14
2019-04-14T00:59:48.720Z,97527.52
2019-04-14T01:02:19.310Z,97528.58
2019-04-14T01:04:49.106Z,97519.83
2019-04-14T01:07:19.576Z,97518.95
2019-04-14T01:09:48.984Z,97519.60
2019-04-14T01:12:19.450Z,97517.31
2019-04-14T01:14:49.581Z,97512.75
2019-04-14T01:17:19.892Z,97507.45
2019-04-14T01:19:50.535Z,97505.51
2019-04-14T01:22:20.589Z,97501.30
2019-04-14T01:24:51.036Z,97506.73
2019-04-14T01:27:21.092Z,97502.39
2019-04-14T01:29:51.594Z,97508.73
2019-04-14T01:32:21.915Z,97507.31
2019-04-14T01:34:53.655Z,97507.50
2019-04-14T01:37:22.566Z,97506.31
2019-04-14T01:39:52.502Z,97516.34
2019-04-14T01:42:23.011Z,97515.13
2019-04-14T01:44:52.572Z,97515.95
2019-04-14T01:47:22.710Z,97518.36
2019-04-14T01:49:53.041Z,97515.00
2019-04-14T01:52:27.458Z,97512.08
2019-04-14T01:55:16.311Z,97507.30
2019-04-14T01:57:50.335Z,97502.80
2019-04-14T02:00:22.725Z,97496.75
2019-04-14T02:02:53.050Z,97501.39
2019-04-14T02:05:23.554Z,97495.73
2019-04-14T02:07:53.778Z,97491.16
2019-04-14T02:10:23.849Z,97494.13
2019-04-14T02:12:54.215Z,97499.50
2019-04-14T02:15:24.440Z,97496.66
2019-04-14T02:17:54.649Z,97494.09
2019-04-14T02:20:25.065Z,97489.26
2019-04-14T02:22:55.316Z,97491.80
2019-04-14T02:25:25.300Z,97486.06
2019-04-14T02:27:55.849Z,97492.87
2019-04-14T02:30:32.674Z,97484.53
2019-04-14T02:33:23.584Z,97491.91
2019-04-14T02:35:55.173Z,97495.39
2019-04-14T02:38:34.483Z,97488.49
2019-04-14T02:41:03.017Z,97489.56
2019-04-14T02:53:42.746Z,97490.52
2019-04-14T03:01:19.725Z,97490.48
2019-04-14T03:03:41.020Z,97488.22
2019-04-14T03:06:13.010Z,97472.75
2019-04-14T03:11:19.756Z,97478.75
2019-04-14T03:13:51.091Z,97482.78
2019-04-14T03:16:27.221Z,97470.16
2019-04-14T03:21:29.954Z,97469.58
2019-04-14T03:24:07.005Z,97471.19
2019-04-14T03:26:45.093Z,97480.02
2019-04-14T03:29:23.383Z,97478.34
2019-04-14T03:34:33.799Z,97473.20
2019-04-14T03:39:24.896Z,97468.09
2019-04-14T03:42:00.910Z,97471.48
2019-04-14T03:44:34.912Z,97478.50
2019-04-14T03:47:10.946Z,97481.64
2019-04-14T03:49:32.062Z,97478.67
2019-04-14T03:51:57.956Z,97480.42
2019-04-14T03:54:27.071Z,97476.00
2019-04-14T03:56:51.442Z,97472.42
2019-04-14T03:59:21.847Z,97473.66
2019-04-14T04:01:52.311Z,97465.46
2019-04-14T04:04:22.722Z,97474.40
2019-04-14T04:06:53.239Z,97466.79
2019-04-14T04:09:25.711Z,97468.14
2019-04-14T04:11:56.303Z,97462.46
2019-04-14T04:14:26.982Z,97470.80
2019-04-14T04:17:07.972Z,97466.75
2019-04-14T04:19:45.060Z,97445.11
2019-04-14T04:22:17.192Z,97463.25
2019-04-14T04:24:48.200Z,97460.61
2019-04-14T04:27:28.732Z,97469.42
2019-04-14T04:30:08.762Z,97462.66
2019-04-14T04:32:54.335Z,97462.98
2019-04-14T04:35:31.134Z,97462.52
2019-04-14T04:38:18.115Z,97468.45
2019-04-14T04:40:48.520Z,97463.98
2019-04-14T04:43:18.932Z,97467.23
2019-04-14T04:45:49.458Z,97470.76
2019-04-14T04:48:19.637Z,97477.99
2019-04-14T04:50:49.894Z,97482.61
2019-04-14T04:53:20.186Z,97482.12
2019-04-14T04:55:50.373Z,97488.54
2019-04-14T04:58:20.075Z,97491.73
2019-04-14T05:00:52.585Z,97495.31
2019-04-14T05:03:21.142Z,97502.88
2019-04-14T05:06:26.701Z,97502.14
2019-04-14T05:09:12.475Z,97500.94
2019-04-14T05:11:44.725Z,97507.05
2019-04-14T05:14:15.801Z,97509.61
2019-04-14T05:16:46.124Z,97517.23
2019-04-14T05:19:23.785Z,97513.12
2019-04-14T05:21:47.388Z,97517.73
2019-04-14T05:24:17.904Z,97520.41
2019-04-14T05:26:48.391Z,97517.73
2019-04-14T05:29:18.900Z,97515.53
2019-04-14T05:31:49.057Z,97512.77
2019-04-14T05:34:19.456Z,97517.37
2019-04-14T05:36:50.019Z,97513.24
2019-04-14T05:39:19.981Z,97524.05
2019-04-14T05:42:01.497Z,97518.23
2019-04-14T05:44:20.801Z,97528.99
2019-04-14T05:46:51.386Z,97520.76
2019-04-14T05:49:30.604Z,97516.52
2019-04-14T05:51:52.448Z,97525.80
2019-04-14T05:54:23.179Z,97525.80
2019-04-14T05:56:53.668Z,97524.27
2019-04-14T05:59:24.328Z,97520.60
2019-04-14T06:01:54.756Z,97522.81
2019-04-14T06:04:24.371Z,97527.80
2019-04-14T06:06:53.983Z,97525.75
2019-04-14T06:09:24.330Z,97522.21
2019-04-14T06:11:53.720Z,97522.56
2019-04-14T06:14:23.112Z,97525.45
2019-04-14T06:16:52.494Z,97526.73
2019-04-14T06:19:21.876Z,97530.41
2019-04-14T06:21:51.271Z,97522.69
2019-04-14T06:24:20.653Z,97524.94
2019-04-14T06:26:50.051Z,97525.02
2019-04-14T06:29:19.739Z,97530.42
2019-04-14T06:31:50.885Z,97529.55
2019-04-14T06:34:27.931Z,97530.95
2019-04-14T06:36:58.965Z,97531.31
2019-04-14T06:39:41.727Z,97533.63
2019-04-14T06:42:11.148Z,97534.55
2019-04-14T06:44:40.535Z,97537.05
2019-04-14T06:47:10.000Z,97534.69
2019-04-14T06:49:48.946Z,97544.52
2019-04-14T06:52:10.757Z,97542.45
2019-04-14T06:54:40.150Z,97539.53
2019-04-14T06:57:10.188Z,97543.81
2019-04-14T06:59:40.538Z,97550.34
2019-04-14T07:02:10.755Z,97547.61
2019-04-14T07:04:40.968Z,97552.75
2019-04-14T07:07:11.212Z,97549.02
2019-04-14T07:09:41.504Z,97549.22
2019-04-14T07:12:11.783Z,97549.07
2019-04-14T07:14:41.985Z,97550.39
2019-04-14T07:17:12.094Z,97555.09
2019-04-14T07:19:42.417Z,97554.38
2019-04-14T07:22:12.530Z,97562.17
2019-04-14T07:24:42.851Z,97562.17
2019-04-14T07:27:13.070Z,97560.44
2019-04-14T07:29:50.999Z,97569.95
2019-04-14T07:32:31.111Z,97565.80
2019-04-14T07:35:10.734Z,97573.75
2019-04-14T07:37:44.440Z,97563.50
2019-04-14T07:40:32.753Z,97568.40
2019-04-14T07:43:03.785Z,97570.78
2019-04-14T07:45:34.803Z,97566.89
2019-04-14T07:48:05.910Z,97562.91
2019-04-14T07:50:36.943Z,97564.26
2019-04-14T07:53:15.510Z,97564.63
2019-04-14T07:55:58.449Z,97568.19
2019-04-14T07:58:44.363Z,97565.27
2019-04-14T08:01:15.392Z,97574.44
2019-04-14T08:03:46.418Z,97575.05
2019-04-14T08:06:16.080Z,97569.55
2019-04-14T08:08:47.358Z,97575.60
2019-04-14T08:11:17.855Z,97574.73
2019-04-14T08:13:47.833Z,97579.88
2019-04-14T08:16:18.041Z,97582.06
2019-04-14T08:18:48.317Z,97584.70
2019-04-14T08:21:18.484Z,97580.65
2019-04-14T08:23:48.907Z,97583.55
2019-04-14T08:26:19.049Z,97579.85
2019-04-14T08:28:49.372Z,97576.52
2019-04-14T08:31:19.499Z,97578.70
2019-04-14T08:33:50.108Z,97583.53
2019-04-14T08:36:20.124Z,97587.55
2019-04-14T08:38:50.426Z,97579.50
2019-04-14T08:41:20.715Z,97584.09
2019-04-14T08:44:08.465Z,97580.23
2019-04-14T08:46:55.900Z,97575.80
2019-04-14T08:49:26.930Z,97578.62
2019-04-14T08:51:57.959Z,97573.23
2019-04-14T08:54:28.982Z,97576.80
2019-04-14T08:57:02.408Z,97573.22
2019-04-14T08:59:39.458Z,97572.63
2019-04-14T09:02:13.516Z,97577.55
2019-04-14T09:04:56.398Z,97581.20
2019-04-14T09:07:27.447Z,97569.14
2019-04-14T09:10:01.425Z,97568.28
2019-04-14T09:12:32.528Z,97570.48
2019-04-14T09:15:01.942Z,97571.34
2019-04-14T09:17:31.393Z,97571.33
2019-04-14T09:20:00.800Z,97573.47
2019-04-14T09:22:30.539Z,97577.23
2019-04-14T09:24:59.948Z,97578.44
2019-04-14T09:27:29.412Z,97569.58
2019-04-14T09:29:58.795Z,97580.55
2019-04-14T09:32:28.732Z,97576.27
2019-04-14T09:34:58.138Z,97577.55
2019-04-14T09:37:27.590Z,97575.28
2019-04-14T09:39:56.972Z,97576.81
2019-04-14T09:42:26.784Z,97578.52
2019-04-14T09:44:57.152Z,97577.25
2019-04-14T09:47:27.439Z,97572.16
2019-04-14T09:49:57.709Z,97580.42
2019-04-14T09:52:27.820Z,97581.14
2019-04-14T09:54:58.259Z,97584.15
2019-04-14T09:57:28.379Z,97578.70
2019-04-14T09:59:58.749Z,97578.62
2019-04-14T10:02:28.945Z,97580.08
2019-04-14T10:04:59.183Z,97576.78
2019-04-14T10:07:29.372Z,97573.64
2019-04-14T10:09:59.632Z,97586.83
2019-04-14T10:12:29.817Z,97585.09
2019-04-14T10:15:00.306Z,97587.02
2019-04-14T10:17:30.378Z,97590.28
2019-04-14T10:20:00.683Z,97585.45
2019-04-14T10:22:34.065Z,97588.72
2019-04-14T10:25:01.990Z,97589.69
2019-04-14T10:27:31.401Z,97594.16
2019-04-14T10:30:01.782Z,97589.94
2019-04-14T10:32:32.792Z,97587.19
2019-04-14T10:35:02.255Z,97593.83
2019-04-14T10:37:32.323Z,97591.70
2019-04-14T10:40:06.255Z,97595.81
2019-04-14T10:42:35.934Z,97594.92
2019-04-14T10:45:06.736Z,97594.48
2019-04-14T10:47:36.269Z,97597.05
2019-04-14T10:50:06.304Z,97600.11
2019-04-14T10:52:35.685Z,97598.36
2019-04-14T10:55:07.217Z,97590.53
2019-04-14T10:57:36.605Z,97589.05
2019-04-14T11:00:10.145Z,97589.91
2019-04-14T11:02:39.615Z,97592.84
2019-04-14T11:05:09.538Z,97590.72
2019-04-14T11:07:38.998Z,97589.02
2019-04-14T11:10:09.814Z,97592.41
2019-04-14T11:12:39.469Z,97590.61
2019-04-14T11:15:09.982Z,97597.45
2019-04-14T11:17:39.396Z,97585.45
2019-04-14T11:20:09.292Z,97593.59
2019-04-14T11:22:38.968Z,97593.23
2019-04-14T11:25:08.347Z,97586.27
2019-04-14T11:27:37.734Z,97596.70
2019-04-14T11:30:09.526Z,97601.56
2019-04-14T11:32:58.998Z,97595.55
2019-04-14T11:35:32.936Z,97588.02
2019-04-14T11:38:04.003Z,97600.72
2019-04-14T11:40:37.704Z,97595.50
2019-04-14T11:43:07.096Z,97599.00
2019-04-14T11:45:36.479Z,97602.75
2019-04-14T11:48:06.098Z,97603.88
2019-04-14T11:50:35.500Z,97603.41
2019-04-14T11:53:05.044Z,97609.60
2019-04-14T11:55:34.425Z,97608.28
2019-04-14T11:58:03.966Z,97610.47
2019-04-14T12:00:51.296Z,97605.09
2019-04-14T12:03:22.327Z,97608.29
2019-04-14T12:06:09.591Z,97608.83
2019-04-14T12:08:56.390Z,97612.27
2019-04-14T12:11:25.853Z,97610.59
2019-04-14T12:13:55.266Z,97608.41
2019-04-14T12:16:24.724Z,97606.08
2019-04-14T12:18:54.117Z,97616.28
2019-04-14T12:21:23.504Z,97614.27
2019-04-14T12:23:52.887Z,97613.02
2019-04-14T12:26:22.394Z,97606.84
2019-04-14T12:28:51.793Z,97612.50
2019-04-14T12:31:21.856Z,97604.72
2019-04-14T12:33:51.228Z,97607.27
2019-04-14T12:36:21.068Z,97604.09
2019-04-14T12:38:50.450Z,97603.02
2019-04-14T12:41:37.695Z,97607.64
2019-04-14T12:44:08.771Z,97609.75
2019-04-14T12:46:39.801Z,97606.28
2019-04-14T12:49:16.802Z,97608.20
2019-04-14T12:51:56.576Z,97603.43
2019-04-14T12:54:27.029Z,97607.77
2019-04-14T12:56:56.411Z,97606.63
2019-04-14T12:59:26.176Z,97613.89
2019-04-14T13:02:06.131Z,97613.43
2019-04-14T13:04:35.602Z,97613.98
2019-04-14T13:07:06.188Z,97617.94
2019-04-14T13:09:35.914Z,97617.70
2019-04-14T13:12:05.448Z,97621.53
2019-04-14T13:14:34.918Z,97620.48
2019-04-14T13:17:04.757Z,97617.74
2019-04-14T13:19:34.132Z,97615.32
2019-04-14T13:22:03.534Z,97613.55
2019-04-14T13:24:32.915Z,97616.41
2019-04-14T13:27:02.303Z,97614.28
2019-04-14T13:29:31.754Z,97614.41
2019-04-14T13:32:01.144Z,97612.73
2019-04-14T13:34:30.613Z,97614.98
2019-04-14T13:37:00.009Z,97614.92
2019-04-14T13:39:29.399Z,97617.08
2019-04-14T13:41:58.962Z,97619.36
2019-04-14T13:44:28.360Z,97618.50
2019-04-14T13:46:57.745Z,97614.40
2019-04-14T13:49:27.171Z,97609.76
2019-04-14T13:51:58.199Z,97611.19
2019-04-14T13:54:27.596Z,97611.78
2019-04-14T13:56:57.003Z,97613.55
2019-04-14T13:59:26.959Z,97609.40
2019-04-14T14:01:56.404Z,97610.47
2019-04-14T14:04:25.788Z,97612.61
2019-04-14T14:06:55.177Z,97611.45
2019-04-14T14:09:24.557Z,97610.52
2019-04-14T14:11:55.904Z,97615.17
2019-04-14T14:14:32.779Z,97614.69
2019-04-14T14:17:20.007Z,97611.46
2019-04-14T14:20:06.070Z,97616.67
2019-04-14T14:22:37.385Z,97607.30
2019-04-14T14:25:14.648Z,97607.30
2019-04-14T14:27:44.050Z,97617.94
2019-04-14T14:30:15.218Z,97619.52
2019-04-14T14:32:44.634Z,97615.46
2019-04-14T14:35:14.069Z,97620.64
2019-04-14T14:37:43.450Z,97616.33
2019-04-14T14:40:13.010Z,97617.18
2019-04-14T14:42:42.392Z,97615.67
2019-04-14T14:45:17.055Z,97618.36
2019-04-14T14:47:48.082Z,97620.69
2019-04-14T14:50:24.972Z,97619.28
2019-04-14T14:52:54.356Z,97624.77
2019-04-14T14:55:23.747Z,97618.86
2019-04-14T14:57:53.139Z,97620.94
2019-04-14T15:00:24.228Z,97610.38
2019-04-14T15:02:53.625Z,97617.80
2019-04-14T15:05:24.145Z,97621.77
2019-04-14T15:07:53.535Z,97623.93
2019-04-14T15:10:22.915Z,97623.54
2019-04-14T15:12:52.317Z,97622.90
2019-04-14T15:15:21.842Z,97624.95
2019-04-14T15:17:51.299Z,97625.82
2019-04-14T15:20:20.768Z,97624.16
2019-04-14T15:22:52.345Z,97628.41
2019-04-14T15:25:21.312Z,97624.75
2019-04-14T15:27:50.694Z,97625.44
2019-04-14T15:30:21.671Z,97621.31
2019-04-14T15:32:52.425Z,97622.59
2019-04-14T15:35:21.888Z,97622.05
2019-04-14T15:37:51.356Z,97623.59
2019-04-14T15:40:20.905Z,97629.84
2019-04-14T15:42:50.308Z,97630.10
2019-04-14T15:45:19.708Z,97625.38
2019-04-14T15:47:49.102Z,97633.91
2019-04-14T15:50:19.644Z,97634.75
2019-04-14T15:52:49.102Z,97633.71
2019-04-14T15:55:19.368Z,97626.83
2019-04-14T15:57:56.113Z,97629.38
2019-04-14T16:00:43.391Z,97636.02
2019-04-14T16:03:14.495Z,97632.45
2019-04-14T16:05:45.520Z,97637.23
2019-04-14T16:08:19.295Z,97634.32
2019-04-14T16:10:50.326Z,97636.55
2019-04-14T16:13:21.365Z,97636.30
2019-04-14T16:16:04.393Z,97641.03
2019-04-14T16:18:38.108Z,97644.83
2019-04-14T16:21:07.488Z,97646.05
2019-04-14T16:23:49.711Z,97645.44
2019-04-14T16:26:15.921Z,97644.89
2019-04-14T16:28:49.962Z,97643.61
2019-04-14T16:31:32.941Z,97643.78
2019-04-14T16:34:03.964Z,97649.89
2019-04-14T16:36:33.431Z,97647.56
2019-04-14T16:39:03.451Z,97642.11
2019-04-14T16:41:34.482Z,97640.84
2019-04-14T16:44:04.221Z,97645.98
2019-04-14T16:46:33.874Z,97648.48
2019-04-14T16:49:03.331Z,97649.41
2019-04-14T16:51:40.232Z,97643.54
2019-04-14T16:54:14.102Z,97645.14
2019-04-14T16:57:01.278Z,97646.34
2019-04-14T16:59:30.753Z,97646.09
2019-04-14T17:02:10.359Z,97650.30
2019-04-14T17:04:31.880Z,97643.48
2019-04-14T17:07:01.333Z,97647.69
2019-04-14T17:09:30.913Z,97642.27
2019-04-14T17:12:00.344Z,97642.06
2019-04-14T17:14:46.281Z,97647.50
2019-04-14T17:17:26.277Z,97640.67
2019-04-14T17:20:02.888Z,97649.55
2019-04-14T17:22:35.536Z,97653.71
2019-04-14T17:25:08.479Z,97655.98
2019-04-14T17:27:43.025Z,97661.16
2019-04-14T17:30:30.051Z,97668.02
2019-04-14T17:33:04.049Z,97668.19
2019-04-14T17:35:51.658Z,97666.58
2019-04-14T17:38:39.180Z,97671.66
2019-04-14T17:41:15.807Z,97671.34
2019-04-14T17:43:47.011Z,97672.94
2019-04-14T17:46:26.821Z,97679.20
2019-04-14T17:49:03.654Z,97676.40
2019-04-14T17:51:34.741Z,97676.98
2019-04-14T17:54:14.945Z,97682.41
2019-04-14T17:56:48.678Z,97681.92
2019-04-14T17:59:25.332Z,97684.13
2019-04-14T18:02:02.044Z,97682.79
2019-04-14T18:04:36.144Z,97688.30
2019-04-14T18:07:07.181Z,97690.78
2019-04-14T18:09:54.396Z,97695.17
2019-04-14T18:12:27.924Z,97695.66
2019-04-14T18:15:04.775Z,97701.28
2019-04-14T18:17:35.820Z,97702.06
2019-04-14T18:20:20.739Z,97709.94
2019-04-14T18:22:51.107Z,97710.23
2019-04-14T18:25:20.487Z,97715.52
2019-04-14T18:27:51.526Z,97715.84
2019-04-14T18:30:25.225Z,97713.80
2019-04-14T18:33:09.260Z,97719.18
2019-04-14T18:35:55.645Z,97725.13
2019-04-14T18:38:32.187Z,97735.08
2019-04-14T18:41:12.012Z,97737.25
2019-04-14T18:43:43.060Z,97740.00
2019-04-14T18:46:14.074Z,97743.31
2019-04-14T18:48:45.111Z,97754.95
2019-04-14T18:51:22.091Z,97755.17
2019-04-14T18:53:56.542Z,97758.21
2019-04-14T18:56:43.812Z,97761.11
2019-04-14T18:59:31.513Z,97763.23
2019-04-14T19:02:01.796Z,97770.72
2019-04-14T19:04:31.195Z,97766.42
2019-04-14T19:07:00.670Z,97772.34
2019-04-14T19:09:32.163Z,97772.42
2019-04-14T19:12:05.889Z,97779.00
2019-04-14T19:14:36.921Z,97783.67
2019-04-14T19:17:10.707Z,97774.98
2019-04-14T19:19:41.736Z,97780.63
2019-04-14T19:22:11.145Z,97778.69
2019-04-14T19:24:40.542Z,97780.50
2019-04-14T19:27:09.939Z,97783.31
2019-04-14T19:29:39.334Z,97789.44
2019-04-14T19:32:08.739Z,97793.38
2019-04-14T19:34:38.133Z,97793.38
2019-04-14T19:37:07.527Z,97793.87
2019-04-14T19:39:37.892Z,97806.69
2019-04-14T19:42:07.286Z,97803.84
2019-04-14T19:44:36.696Z,97804.47
2019-04-14T19:47:06.071Z,97806.59
2019-04-14T19:49:35.483Z,97807.80
2019-04-14T19:52:04.944Z,97813.73
2019-04-14T19:54:35.304Z,97816.66
2019-04-14T19:57:04.813Z,97814.08
2019-04-14T19:59:34.205Z,97810.08
2019-04-14T20:02:03.644Z,97816.90
2019-04-14T20:04:33.032Z,97817.20
2019-04-14T20:07:03.487Z,97810.94
2019-04-14T20:09:32.953Z,97817.55
2019-04-14T20:12:02.407Z,97818.67
2019-04-14T20:14:31.805Z,97816.90
2019-04-14T20:17:19.011Z,97819.80
2019-04-14T20:19:52.454Z,97816.53
2019-04-14T20:22:26.744Z,97825.17
2019-04-14T20:25:10.384Z,97826.41
2019-04-14T20:30:49.334Z,97828.66
2019-04-14T20:33:19.494Z,97832.95
2019-04-14T20:35:48.884Z,97840.55
2019-04-14T20:38:18.280Z,97831.37
2019-04-14T20:40:47.714Z,97838.23
2019-04-14T20:43:17.053Z,97832.95
2019-04-14T20:45:46.446Z,97846.03
2019-04-14T20:48:15.862Z,97841.17
2019-04-14T20:50:45.294Z,97842.05
2019-04-14T20:53:14.709Z,97845.20
2019-04-14T20:55:47.360Z,97844.13
2019-04-14T20:58:15.328Z,97851.53
2019-04-14T21:00:44.790Z,97851.37
2019-04-14T21:03:32.278Z,97856.64
2019-04-14T21:06:03.297Z,97865.83
2019-04-14T21:08:51.692Z,97872.13
2019-04-14T21:11:40.925Z,97875.20
2019-04-14T21:16:55.503Z,97881.13
2019-04-14T21:19:35.389Z,97870.14
2019-04-14T21:22:15.479Z,97870.91
2019-04-14T21:24:58.667Z,97863.80
2019-04-14T21:27:44.807Z,97856.60
2019-04-14T21:30:29.639Z,97856.77
2019-04-14T21:33:09.207Z,97856.22
2019-04-14T21:35:42.936Z,97859.42
2019-04-14T21:38:14.140Z,97860.36
2019-04-14T21:40:53.952Z,97864.45
2019-04-14T21:43:23.330Z,97868.67
2019-04-14T21:45:52.705Z,97868.91
2019-04-14T21:48:22.090Z,97866.42
2019-04-14T21:50:57.122Z,97867.55
2019-04-14T21:53:27.242Z,97871.05
2019-04-14T21:55:57.252Z,97874.67
2019-04-14T21:58:29.143Z,97877.88
2019-04-14T22:01:34.121Z,97879.34
2019-04-14T22:04:08.364Z,97878.38
2019-04-14T22:06:39.367Z,97879.99
2019-04-14T22:09:19.460Z,97869.42
2019-04-14T22:11:48.989Z,97871.45
2019-04-14T22:14:18.382Z,97860.86
2019-04-14T22:16:47.774Z,97860.86
2019-04-14T22:19:17.228Z,97859.03
2019-04-14T22:21:47.514Z,97860.53
2019-04-14T22:24:17.036Z,97852.71
2019-04-14T22:26:46.412Z,97859.63
2019-04-14T22:29:15.866Z,97859.17
2019-04-14T22:31:45.252Z,97868.30
2019-04-14T22:34:14.634Z,97869.77
2019-04-14T22:36:44.002Z,97861.58
2019-04-14T22:39:18.179Z,97859.69
2019-04-14T22:41:47.548Z,97862.52
2019-04-14T22:44:16.953Z,97861.73
2019-04-14T22:46:46.329Z,97867.19
2019-04-14T22:49:15.997Z,97867.25
2019-04-14T22:51:45.380Z,97864.02
2019-04-14T22:54:15.098Z,97869.70
2019-04-14T22:56:44.758Z,97870.75
2019-04-14T22:59:14.168Z,97870.53
2019-04-14T23:01:45.187Z,97871.62
2019-04-14T23:04:24.956Z,97868.16
2019-04-14T23:06:58.788Z,97875.34
2019-04-14T23:09:29.817Z,97870.66
2019-04-14T23:12:06.563Z,97864.91
2019-04-14T23:14:37.585Z,97868.95
2019-04-14T23:17:24.877Z,97866.78
2019-04-14T23:20:02.761Z,97864.56
2019-04-14T23:22:33.850Z,97865.17
2019-04-14T23:25:03.299Z,97865.25
2019-04-14T23:27:32.751Z,97865.63
2019-04-14T23:30:03.159Z,97859.59
2019-04-14T23:32:32.719Z,97861.48
2019-04-14T23:35:02.102Z,97856.08
2019-04-14T23:37:31.470Z,97857.89
2019-04-14T23:40:00.859Z,97850.30
2019-04-14T23:42:31.190Z,97847.69
2019-04-14T23:45:00.578Z,97850.83
2019-04-14T23:47:30.017Z,97858.52
2019-04-14T23:49:59.684Z,97844.58
2019-04-14T23:52:29.063Z,97850.72
2019-04-14T23:54:58.439Z,97845.72
2019-04-14T23:57:27.894Z,97851.45
2019-04-14T23:59:57.549Z,97851.44
